Terminal Aerodrome Forecast
Issued by NWS San Angelo, TX

Home | Current Version | Previous Version | Text Only | Print | Product List | Glossary On
Versions: 1 2 3 4 5 6 7 8 9 10 11 12 13 14
000
FTUS44 KSJT 010122 AAB
TAFABI
TAF AMD
KABI 010122Z 0101/0124 10015G25KT P6SM VCSH SCT080
     FM010230 VRB05KT P6SM SCT250
     FM011800 13008KT P6SM VCSH SCT070=

USA.gov is the U.S. government's official web portal to all federal, state and local government web resources and services.